createdAt,value
2023-01-05T00:01:15.230Z,4.5
2023-01-05T00:06:24.369Z,4.4
2023-01-05T00:11:32.098Z,4.4
2023-01-05T00:16:38.546Z,4.3
2023-01-05T00:22:00.979Z,4.3
2023-01-05T00:32:37.901Z,4.2
2023-01-05T00:37:28.723Z,4.2
2023-01-05T00:47:12.954Z,4.1
2023-01-05T00:52:20.018Z,4.1
2023-01-05T01:02:04.198Z,4.1
2023-01-05T01:07:11.838Z,4.1
2023-01-05T01:12:17.970Z,4.1
2023-01-05T01:17:26.024Z,4.1
2023-01-05T01:22:47.408Z,4.1
2023-01-05T01:28:09.719Z,4.1
2023-01-05T01:33:02.099Z,4.1
2023-01-05T01:37:52.559Z,4.1
2023-01-05T01:42:59.385Z,4.1
2023-01-05T01:48:07.024Z,4.2
2023-01-05T01:53:29.668Z,4.1
2023-01-05T01:58:36.527Z,4.2
2023-01-05T02:04:00.626Z,4.2
2023-01-05T02:08:52.455Z,4.2
2023-01-05T02:13:31.352Z,4.2
2023-01-05T02:18:22.967Z,4.2
2023-01-05T02:28:27.774Z,4.2
2023-01-05T02:33:19.171Z,4.2
2023-01-05T02:38:30.619Z,4.2
2023-01-05T02:43:07.320Z,4.2
2023-01-05T02:47:43.183Z,4.1
2023-01-05T02:52:34.730Z,4.2
2023-01-05T02:57:25.499Z,4.2
2023-01-05T03:02:34.104Z,4.1
2023-01-05T03:07:10.804Z,4.2
2023-01-05T03:11:46.052Z,4.1
2023-01-05T03:16:21.755Z,4.1
2023-01-05T03:21:29.111Z,4.1
2023-01-05T03:26:20.249Z,4.1
2023-01-05T03:31:26.841Z,4.1
2023-01-05T03:36:34.600Z,4.1
2023-01-05T03:41:29.247Z,4.1
2023-01-05T03:46:19.659Z,4.1
2023-01-05T03:51:11.155Z,4.1
2023-01-05T04:00:38.472Z,4
2023-01-05T04:05:35.403Z,4
2023-01-05T04:10:42.256Z,3.9
2023-01-05T04:15:34.478Z,3.9
2023-01-05T04:20:25.842Z,3.9
2023-01-05T04:25:37.426Z,3.8
2023-01-05T04:30:44.830Z,3.7
2023-01-05T04:35:51.969Z,3.6
2023-01-05T04:40:59.007Z,3.5
2023-01-05T04:46:06.754Z,3.4
2023-01-05T04:51:14.180Z,3.2
2023-01-05T04:56:05.721Z,3.1
2023-01-05T05:01:17.655Z,2.9
2023-01-05T05:06:11.309Z,2.8
2023-01-05T05:10:47.780Z,2.7
2023-01-05T05:15:54.666Z,2.6
2023-01-05T05:20:31.367Z,2.5
2023-01-05T05:25:07.763Z,2.4
2023-01-05T05:29:59.815Z,2.4
2023-01-05T05:35:07.039Z,2.3
2023-01-05T05:40:00.912Z,2.3
2023-01-05T05:49:34.700Z,2.2
2023-01-05T05:59:40.356Z,2.2
2023-01-05T06:04:48.806Z,2.1
2023-01-05T06:10:11.404Z,2.2
2023-01-05T06:15:35.034Z,2.2
2023-01-05T06:20:42.787Z,2.2
2023-01-05T06:25:51.704Z,2.3
2023-01-05T06:31:14.351Z,2.3
2023-01-05T06:36:37.296Z,2.3
2023-01-05T06:42:05.329Z,2.4
2023-01-05T06:47:29.229Z,2.7
2023-01-05T06:52:54.533Z,3.1
2023-01-05T06:58:17.967Z,3.6
2023-01-05T07:03:40.832Z,4.3
2023-01-05T07:09:08.251Z,5.2
2023-01-05T07:14:30.958Z,6.4
2023-01-05T07:20:00.211Z,7.9
2023-01-05T07:25:23.345Z,9.6
2023-01-05T07:30:51.561Z,11.4
2023-01-05T07:36:23.367Z,13.4
2023-01-05T07:41:46.178Z,15.3
2023-01-05T07:46:53.333Z,40.2
2023-01-05T07:52:07.740Z,40.6
2023-01-05T07:57:30.774Z,38.3
2023-01-05T08:02:54.541Z,37.4
2023-01-05T08:08:02.495Z,48
2023-01-05T08:13:30.030Z,51.3
2023-01-05T08:18:57.086Z,52.6
2023-01-05T08:24:21.973Z,53.3
2023-01-05T08:29:46.700Z,53.6
2023-01-05T08:34:55.641Z,53.8
2023-01-05T08:40:18.197Z,54.1
2023-01-05T08:45:45.369Z,54.6
2023-01-05T08:51:11.582Z,55.2
2023-01-05T08:56:38.518Z,55.6
2023-01-05T09:02:02.200Z,55.9
2023-01-05T09:07:31.366Z,56.3
2023-01-05T09:12:54.435Z,56.7
2023-01-05T09:18:47.141Z,57.1
2023-01-05T09:23:54.403Z,57.4
2023-01-05T09:34:32.535Z,57.9
2023-01-05T09:39:58.537Z,58.1
2023-01-05T09:45:22.167Z,58.3
2023-01-05T09:50:46.609Z,58.4
2023-01-05T09:56:09.773Z,58.7
2023-01-05T10:02:14.509Z,58.8
2023-01-05T10:08:18.811Z,59.2
2023-01-05T10:13:41.898Z,59.3
2023-01-05T10:19:43.796Z,59.2
2023-01-05T10:25:13.277Z,59.2
2023-01-05T10:31:19.083Z,59.4
2023-01-05T10:38:36.104Z,59.8
2023-01-05T10:43:59.867Z,60.3
2023-01-05T10:49:49.009Z,60.6
2023-01-05T10:55:17.187Z,60.6
2023-01-05T11:00:46.188Z,61
2023-01-05T11:06:54.877Z,61.6
2023-01-05T11:12:18.584Z,61.4
2023-01-05T11:17:46.706Z,61.2
2023-01-05T11:23:13.272Z,61.8
2023-01-05T11:28:43.182Z,61.6
2023-01-05T11:33:41.364Z,61.8
2023-01-05T11:39:10.388Z,61.4
2023-01-05T11:44:37.439Z,61.5
2023-01-05T11:50:08.650Z,61.2
2023-01-05T11:55:01.295Z,61.6
2023-01-05T12:00:25.319Z,62.1
2023-01-05T12:05:34.599Z,61.4
2023-01-05T12:10:46.898Z,60.7
2023-01-05T12:16:18.264Z,60.2
2023-01-05T12:21:26.615Z,59.7
2023-01-05T12:26:36.274Z,58.7
2023-01-05T12:36:05.433Z,57.9
2023-01-05T12:41:18.731Z,56.9
2023-01-05T12:46:43.895Z,56.1
2023-01-05T12:51:52.278Z,55.9
2023-01-05T12:56:44.486Z,55.3
2023-01-05T13:02:07.920Z,55.7
2023-01-05T13:07:13.914Z,53.5
2023-01-05T13:17:21.113Z,53.1
2023-01-05T13:22:12.656Z,53.2
2023-01-05T13:27:35.966Z,52.9
2023-01-05T13:32:49.339Z,52.6
2023-01-05T13:38:12.244Z,52.2
2023-01-05T13:43:35.073Z,52
2023-01-05T13:49:21.374Z,51.7
2023-01-05T13:54:42.927Z,51.3
2023-01-05T14:00:46.310Z,50.8
2023-01-05T14:06:10.643Z,50.1
2023-01-05T14:11:33.441Z,49.6
2023-01-05T14:16:41.385Z,49.1
2023-01-05T14:22:07.836Z,48.5
2023-01-05T14:27:17.731Z,47.8
2023-01-05T14:32:41.228Z,47.1
2023-01-05T14:37:49.291Z,44.2
2023-01-05T14:43:02.525Z,40.9
2023-01-05T14:48:10.365Z,37.8
2023-01-05T14:53:34.163Z,35.3
2023-01-05T14:59:22.479Z,32.6
2023-01-05T15:04:48.106Z,30.3
2023-01-05T15:10:13.401Z,28.3
2023-01-05T15:15:39.714Z,26.4
2023-01-05T15:20:50.267Z,24.6
2023-01-05T15:26:32.539Z,22.9
2023-01-05T15:31:40.185Z,21.7
2023-01-05T15:36:47.547Z,20.4
2023-01-05T15:41:56.780Z,19.3
2023-01-05T15:47:03.985Z,18.4
2023-01-05T15:52:12.130Z,17.4
2023-01-05T15:57:19.894Z,16.6
2023-01-05T16:02:28.023Z,15.8
2023-01-05T16:07:37.032Z,15.1
2023-01-05T16:13:00.977Z,14.5
2023-01-05T16:18:21.746Z,13.8
2023-01-05T16:23:33.336Z,13.3
2023-01-05T16:28:41.741Z,12.7
2023-01-05T16:34:05.127Z,12.2
2023-01-05T16:39:13.137Z,11.6
2023-01-05T16:49:14.777Z,10.8
2023-01-05T16:54:45.091Z,10.3
2023-01-05T17:00:01.753Z,9.8
2023-01-05T17:05:09.000Z,9.3
2023-01-05T17:10:15.862Z,9
2023-01-05T17:15:24.633Z,8.7
2023-01-05T17:20:33.507Z,8.4
2023-01-05T17:25:57.120Z,8.2
2023-01-05T17:31:05.734Z,7.9
2023-01-05T17:35:58.515Z,7.8
2023-01-05T17:41:07.668Z,7.6
2023-01-05T17:45:44.733Z,7.4
2023-01-05T17:50:36.602Z,7.3
2023-01-05T18:01:27.223Z,7
2023-01-05T18:06:52.276Z,6.9
2023-01-05T18:12:16.701Z,6.8
2023-01-05T18:17:40.498Z,6.8
2023-01-05T18:23:04.007Z,6.7
2023-01-05T18:28:27.641Z,6.7
2023-01-05T18:33:51.900Z,6.7
2023-01-05T18:39:25.323Z,6.6
2023-01-05T18:44:48.772Z,6.6
2023-01-05T18:50:15.935Z,6.6
2023-01-05T18:55:41.040Z,6.6
2023-01-05T19:06:15.672Z,6.4
2023-01-05T19:11:38.994Z,6.4
2023-01-05T19:17:03.031Z,6.3
2023-01-05T19:22:11.124Z,6.3
2023-01-05T19:27:20.781Z,6.1
2023-01-05T19:32:44.472Z,6.1
2023-01-05T19:38:07.681Z,6
2023-01-05T19:43:33.382Z,5.9
2023-01-05T19:48:59.676Z,5.8
2023-01-05T19:54:08.266Z,5.8
2023-01-05T19:59:31.722Z,5.7
2023-01-05T20:04:42.055Z,5.6
2023-01-05T20:09:50.368Z,5.5
2023-01-05T20:15:24.477Z,5.5
2023-01-05T20:20:16.194Z,5.4
2023-01-05T20:25:25.325Z,5.3
2023-01-05T20:30:33.552Z,5.3
2023-01-05T20:35:56.495Z,5.2
2023-01-05T20:41:20.934Z,5.1
2023-01-05T20:46:50.334Z,5.1
2023-01-05T20:52:20.624Z,5
2023-01-05T20:57:43.538Z,4.9
2023-01-05T21:03:35.817Z,4.8
2023-01-05T21:08:30.228Z,4.7
2023-01-05T21:19:20.282Z,4.4
2023-01-05T21:24:42.373Z,4.3
2023-01-05T21:35:32.888Z,4.1
2023-01-05T21:41:21.767Z,3.9
2023-01-05T21:46:29.163Z,3.8
2023-01-05T21:51:39.388Z,3.8
2023-01-05T21:56:46.752Z,3.7
2023-01-05T22:01:54.387Z,3.6
2023-01-05T22:07:02.790Z,3.5
2023-01-05T22:17:34.578Z,3.4
2023-01-05T22:22:57.960Z,3.4
2023-01-05T22:33:14.559Z,3.3
2023-01-05T22:38:22.341Z,3.3
2023-01-05T22:43:14.149Z,3.3
2023-01-05T22:48:21.227Z,3.3
2023-01-05T22:53:44.766Z,3.3
2023-01-05T22:58:51.622Z,3.3
2023-01-05T23:04:01.794Z,3.3
2023-01-05T23:08:22.919Z,3.2
2023-01-05T23:13:29.411Z,3.2
2023-01-05T23:18:52.401Z,3.2
2023-01-05T23:24:00.304Z,3.1
2023-01-05T23:29:07.959Z,3.1
2023-01-05T23:34:16.813Z,3.1
2023-01-05T23:39:39.993Z,3.1
2023-01-05T23:44:48.141Z,3.1
2023-01-05T23:49:39.839Z,3.2
2023-01-05T23:55:03.856Z,3.3
